Flight Track Log - Related Links

Times and Time Zones

All times are in EDT time to prevent confusion due to time zone crossing. See the DAL3678 flight status page for this flight to view local times or setup timezone preferences in your user account.

Time Position Orientation Groundspeed Altitude Reporting Facility
EDT Latitude Longitude Course Direction KTS MPH feet Rate Location/Type
Thu 07:17:36 PM 34.7350 -92.1994 90° East 149 171 900  Level Memphis Center
Thu 07:17:55 PM 34.7417 -92.1844 62° Northeast 172 198 1,900 2,278 Climbing Memphis Center
Thu 07:18:55 PM 34.7489 -92.1214 82° East 204 235 3,900 2,155 Climbing Memphis Center
Thu 07:20:56 PM 34.7719 -91.9525 81° East 284 327 8,400 2,254 Climbing Memphis Center
Thu 07:21:56 PM 34.7856 -91.8567 80° East 284 327 10,700 1,800 Climbing Memphis Center
Thu 07:22:56 PM 34.7972 -91.7531 82° East 290 334 12,000 1,500 Climbing Memphis Center
Thu 07:23:00 PM 34.8167 -91.4968 90° East  Level FlightAware Approximate
Thu 07:23:56 PM 34.8172 -91.6294 79° East 323 372 13,700  Level Memphis Center
Thu 07:24:56 PM 34.8311 -91.5031 82° East 350 403 15,300 1,750 Climbing Memphis Center
Thu 07:25:56 PM 34.8467 -91.3769 81° East 375 432 17,200 1,750 Climbing Memphis Center
Thu 07:26:56 PM 34.8644 -91.2456 81° East 380 437 18,800 1,500 Climbing Memphis Center
Thu 07:27:56 PM 34.8800 -91.1114 82° East 391 450 20,200 1,300 Climbing Memphis Center
Thu 07:28:56 PM 34.8972 -90.9875 80° East 404 465 21,400 1,450 Climbing Memphis Center
Thu 07:29:56 PM 34.9167 -90.8358 81° East 409 471 23,100 1,250 Climbing Memphis Center
Thu 07:30:56 PM 34.9317 -90.7092 82° East 414 476 23,900 900 Climbing Memphis Center
Thu 07:31:56 PM 34.9489 -90.5647 82° East 428 493 24,900 1,050 Climbing Memphis Center
Thu 07:32:56 PM 34.9678 -90.4178 81° East 428 493 26,000 1,050 Climbing Memphis Center
Thu 07:33:56 PM 34.9864 -90.2708 81° East 433 498 27,000 1,050 Climbing Memphis Center
Thu 07:34:56 PM 35.0031 -90.1239 82° East 433 498 28,100 900 Climbing Memphis Center
Thu 07:35:56 PM 35.0150 -89.9539 85° East 445 512 28,800 900 Climbing Memphis Center
Thu 07:36:56 PM 34.9956 -89.7994 99° East 450 518 29,900 1,100 Climbing Memphis Center
Thu 07:37:56 PM 34.9697 -89.6400 101° East 473 544 31,000 550 Climbing Memphis Center
Thu 07:38:56 PM 34.9436 -89.4831 101° East 473 544 31,000  Level Memphis Center
Thu 07:39:56 PM 34.9217 -89.3414 101° East 468 539 31,000  Level Memphis Center
Thu 07:40:56 PM 34.8975 -89.1847 101° East 473 544 31,000  Level Memphis Center
Thu 07:41:56 PM 34.8728 -89.0256 101° East 473 544 31,000  Level Memphis Center
Thu 07:42:56 PM 34.8481 -88.8692 101° East 468 539 31,000  Level Memphis Center
Thu 07:43:56 PM 34.8253 -88.7103 100° East 468 539 31,000  Level Memphis Center
Thu 07:44:56 PM 34.7978 -88.5336 101° East 468 539 31,000  Level Memphis Center
Thu 07:45:56 PM 34.7725 -88.3800 101° East 468 539 31,000  Level Memphis Center
Thu 07:46:56 PM 34.7469 -88.2189 101° East 473 544 31,000  Level Memphis Center
Thu 07:47:56 PM 34.7208 -88.0478 100° East 501 577 31,000  Level Memphis Center
Thu 07:48:56 PM 34.6906 -87.8869 103° East 501 577 31,000  Level Memphis Center
Thu 07:49:56 PM 34.6664 -87.7183 100° East 501 577 31,000  Level Memphis Center
Thu 07:50:56 PM 34.6397 -87.5578 101° East 496 571 31,000  Level Memphis Center
Thu 07:52:23 PM 34.6053 -87.3522 101° East 469 540 31,000  Level Atlanta Center
Thu 07:53:23 PM 34.5797 -87.2150 103° East 429 494 31,000  Level Atlanta Center
Thu 07:54:23 PM 34.5519 -87.0778 104° East 417 480 31,000  Level Atlanta Center
Thu 07:55:24 PM 34.5261 -86.9408 103° East 411 473 31,000  Level Atlanta Center
Thu 07:56:23 PM 34.5000 -86.7989 103° East 416 479 31,000  Level Atlanta Center
Thu 07:57:23 PM 34.4719 -86.6567 103° East 421 484 31,000  Level Atlanta Center
Thu 07:58:24 PM 34.4436 -86.5147 104° East 421 484 31,000  Level Atlanta Center
Thu 07:59:23 PM 34.4169 -86.3756 103° East 427 491 31,000  Level Atlanta Center
Thu 08:00:23 PM 34.3906 -86.2314 102° East 432 497 31,000 -50 Level Atlanta Center
Thu 08:01:23 PM 34.3594 -86.0894 105° East 432 497 30,900 -500 Descending Atlanta Center
Thu 08:02:23 PM 34.3306 -85.9431 103° East 432 497 30,000 -450 Descending Atlanta Center
Thu 08:03:23 PM 34.3092 -85.8344 103° East 432 497 30,000  Level Atlanta Center
Thu 08:04:23 PM 34.2781 -85.6678 103° East 421 484 30,000 -200 Level Atlanta Center
Thu 08:05:23 PM 34.2486 -85.5239 104° East 426 490 29,600 -600 Descending Atlanta Center
Thu 08:06:23 PM 34.2211 -85.3828 103° East 431 496 28,800 -800 Descending Atlanta Center
Thu 08:07:23 PM 34.1911 -85.2467 105° East 431 496 28,000 -1,200 Descending Atlanta Center
Thu 08:08:23 PM 34.1611 -85.1108 105° East 425 489 26,400 -1,200 Descending Atlanta Center
Thu 08:09:23 PM 34.0908 -85.0397 140° Southeast 369 425 25,600 -700 Descending Atlanta Center
Thu 08:10:23 PM 34.0194 -85.0889 210° Southwest 265 305 25,000 -800 Descending Atlanta Center
Thu 08:11:23 PM 33.9936 -85.1739 250° West 248 285 24,000 -850 Descending Atlanta Center
Thu 08:12:23 PM 34.0408 -85.2597 304° West 292 336 23,300 -1,000 Descending Atlanta Center
Thu 08:13:23 PM 34.1006 -85.3258 317° Northwest 302 348 22,000 -1,550 Descending Atlanta Center
Thu 08:14:23 PM 34.1833 -85.4075 321° Northwest 351 404 20,200 -1,850 Descending Atlanta Center
Thu 08:15:23 PM 34.2681 -85.4742 327° Northwest 367 422 18,300 -1,833 Descending Atlanta Center
Thu 08:17:23 PM 34.3431 -85.2817 65° Northeast 282 325 14,700 -1,733 Descending Atlanta Center
Thu 08:18:23 PM 34.2564 -85.1875 138° Southeast 331 381 13,100 -850 Descending Atlanta Center
Thu 08:19:23 PM 34.1675 -85.1033 142° Southeast 375 432 13,000 -50 Descending Atlanta Center
Thu 08:20:23 PM 34.0889 -85.0244 140° Southeast 391 450 13,000 -500 Level Atlanta Center
Thu 08:21:23 PM 34.0161 -84.9761 151° Southeast 336 387 12,000 -1,150 Descending Atlanta Center
Thu 08:22:23 PM 33.9411 -84.9478 163° South 296 341 10,700 -1,150 Descending Atlanta Center
Thu 08:23:23 PM 33.8642 -84.9194 163° South 287 330 9,700 -1,000 Descending Atlanta Center
Thu 08:24:23 PM 33.7850 -84.9136 176° South 282 325 8,700 -1,000 Descending Atlanta Center
Thu 08:25:23 PM 33.7097 -84.9078 176° South 277 319 7,700 -750 Descending Atlanta Center
Thu 08:26:23 PM 33.6494 -84.8772 157° South 234 269 7,200 -416 Descending Atlanta Center
Thu 08:27:04 PM 33.6333 -84.8167 108° East 226 260 7,000 -535 Descending Atlanta TRACON
Thu 08:28:04 PM 33.6333 -84.7500 90° East 219 252 6,300 -1,100 Descending Atlanta TRACON
Thu 08:29:04 PM 33.6333 -84.6833 90° East 218 251 4,800 -1,300 Descending Atlanta TRACON
Thu 08:30:04 PM 33.6333 -84.6167 90° East 206 237 3,700 -1,000 Descending Atlanta TRACON
Thu 08:31:10 PM 33.6333 -84.5500 90° East 163 188 2,700 -850 Descending Atlanta TRACON
Thu 08:32:04 PM 33.6333 -84.5000 90° East 124 143 2,000 -737 Descending Atlanta TRACON
Thu 08:33:04 PM 33.6333 -84.4667 90° East 127 146 1,300 -700 Descending Atlanta TRACON
Thu 08:35:00 PM 33.6367 -84.4279 North  Level Estimated
Thu 08:42:00 PM 33.6367 -84.4279 North  Level Estimated

Login

Don't have an account? Register now (free) for customized features, flight alerts, and more!